createdAt,value
2018-09-04T00:02:27.406Z,30.73
2018-09-04T00:04:55.928Z,30.83
2018-09-04T00:07:24.332Z,36.97
2018-09-04T00:09:53.254Z,39.30
2018-09-04T00:12:21.623Z,37.23
2018-09-04T00:14:50.080Z,40.57
2018-09-04T00:17:18.529Z,37.53
2018-09-04T00:19:47.009Z,38.50
2018-09-04T00:22:15.491Z,38.43
2018-09-04T00:24:44.106Z,35.20
2018-09-04T00:27:12.486Z,36.23
2018-09-04T00:29:40.977Z,41.10
2018-09-04T00:32:09.365Z,41.00
2018-09-04T00:34:37.953Z,37.13
2018-09-04T00:37:06.392Z,37.37
2018-09-04T00:39:34.894Z,36.97
2018-09-04T00:42:03.421Z,38.87
2018-09-04T00:44:31.799Z,43.30
2018-09-04T00:47:00.210Z,43.90
2018-09-04T00:49:28.638Z,41.97
2018-09-04T00:51:57.033Z,44.27
2018-09-04T00:54:25.495Z,40.80
2018-09-04T00:56:53.915Z,42.97
2018-09-04T00:59:22.313Z,43.80
2018-09-04T01:01:50.709Z,29.73
2018-09-04T01:04:19.166Z,36.73
2018-09-04T01:06:47.570Z,38.70
2018-09-04T01:09:19.387Z,33.37
2018-09-04T01:11:47.923Z,27.73
2018-09-04T01:14:16.372Z,29.30
2018-09-04T01:16:45.520Z,26.97
2018-09-04T01:19:14.301Z,31.23
2018-09-04T01:21:42.793Z,31.27
2018-09-04T01:24:11.737Z,31.13
2018-09-04T01:26:40.296Z,28.27
2018-09-04T01:29:09.279Z,31.60
2018-09-04T01:31:37.702Z,33.93
2018-09-04T01:34:06.122Z,29.93
2018-09-04T01:36:34.537Z,27.37
2018-09-04T01:39:03.435Z,35.37
2018-09-04T01:41:32.002Z,26.70
2018-09-04T01:44:00.511Z,35.50
2018-09-04T01:46:29.097Z,43.00
2018-09-04T01:48:57.566Z,28.87
2018-09-04T01:51:25.925Z,28.23
2018-09-04T01:54:05.175Z,24.40
2018-09-04T01:56:33.624Z,28.23
2018-09-04T01:59:02.158Z,29.70
2018-09-04T02:01:30.638Z,24.10
2018-09-04T02:03:59.118Z,24.40
2018-09-04T02:06:27.550Z,25.40
2018-09-04T02:08:55.925Z,32.30
2018-09-04T02:11:24.407Z,26.83
2018-09-04T02:13:52.846Z,37.00
2018-09-04T02:16:21.341Z,28.97
2018-09-04T02:18:50.040Z,31.60
2018-09-04T02:21:18.455Z,29.60
2018-09-04T02:23:46.940Z,31.83
2018-09-04T02:26:15.387Z,24.23
2018-09-04T02:28:43.817Z,34.53
2018-09-04T02:31:12.246Z,34.87
2018-09-04T02:33:41.329Z,24.33
2018-09-04T02:36:09.752Z,23.50
2018-09-04T02:38:38.631Z,27.80
2018-09-04T02:41:07.446Z,23.80
2018-09-04T02:43:35.930Z,22.63
2018-09-04T02:46:04.708Z,29.87
2018-09-04T02:48:33.275Z,23.03
2018-09-04T02:51:07.877Z,30.80
2018-09-04T02:53:36.379Z,31.50
2018-09-04T02:56:05.127Z,27.93
2018-09-04T02:58:33.616Z,85.90
2018-09-04T03:01:02.226Z,29.10
2018-09-04T03:03:30.789Z,35.20
2018-09-04T03:05:59.335Z,33.20
2018-09-04T03:08:28.337Z,26.43
2018-09-04T03:10:56.659Z,35.97
2018-09-04T03:13:25.024Z,21.53
2018-09-04T03:15:53.534Z,32.70
2018-09-04T03:18:22.457Z,69.37
2018-09-04T03:20:50.856Z,19.10
2018-09-04T03:23:19.285Z,25.40
2018-09-04T03:25:47.938Z,17.07
2018-09-04T03:28:16.610Z,18.10
2018-09-04T03:30:45.028Z,17.77
2018-09-04T03:33:13.465Z,25.57
2018-09-04T03:35:41.833Z,31.37
2018-09-04T03:38:10.251Z,26.77
2018-09-04T03:40:38.625Z,24.90
2018-09-04T03:43:07.693Z,37.20
2018-09-04T03:45:36.609Z,43.77
2018-09-04T03:48:05.326Z,26.77
2018-09-04T03:50:33.688Z,33.00
2018-09-04T03:53:02.037Z,35.97
2018-09-04T03:55:30.459Z,19.43
2018-09-04T03:57:58.834Z,43.97
2018-09-04T04:00:27.294Z,20.40
2018-09-04T04:02:55.664Z,25.37
2018-09-04T04:05:24.173Z,18.57
2018-09-04T04:07:52.619Z,21.20
2018-09-04T04:10:21.006Z,19.90
2018-09-04T04:12:49.384Z,15.83
2018-09-04T04:15:18.265Z,20.70
2018-09-04T04:17:46.656Z,18.33
2018-09-04T04:20:15.130Z,19.63
2018-09-04T04:22:43.662Z,22.43
2018-09-04T04:25:12.119Z,24.33
2018-09-04T04:27:41.025Z,35.27
2018-09-04T04:30:09.477Z,20.30
2018-09-04T04:32:37.952Z,21.40
2018-09-04T04:35:06.845Z,23.43
2018-09-04T04:37:35.302Z,102.80
2018-09-04T04:40:03.917Z,48.27
2018-09-04T04:42:32.280Z,43.70
2018-09-04T04:45:00.655Z,36.23
2018-09-04T04:47:34.223Z,23.83
2018-09-04T04:50:02.614Z,36.77
2018-09-04T04:52:30.990Z,35.73
2018-09-04T04:54:59.379Z,35.30
2018-09-04T04:57:27.789Z,47.77
2018-09-04T04:59:56.193Z,19.20
2018-09-04T05:02:24.613Z,35.87
2018-09-04T05:04:53.040Z,22.43
2018-09-04T05:07:21.542Z,47.00
2018-09-04T05:09:49.925Z,50.57
2018-09-04T05:12:18.336Z,66.67
2018-09-04T05:14:46.810Z,35.37
2018-09-04T05:17:15.265Z,20.83
2018-09-04T05:19:43.673Z,53.20
2018-09-04T05:22:12.132Z,25.30
2018-09-04T05:24:40.605Z,35.67
2018-09-04T05:27:09.050Z,24.23
2018-09-04T05:29:37.728Z,60.47
2018-09-04T05:32:11.564Z,21.77
2018-09-04T05:34:40.030Z,21.30
2018-09-04T05:37:08.420Z,21.63
2018-09-04T05:39:36.894Z,21.87
2018-09-04T05:42:10.696Z,19.10
2018-09-04T05:44:39.108Z,21.13
2018-09-04T05:47:07.610Z,19.37
2018-09-04T05:49:36.014Z,25.00
2018-09-04T05:52:04.638Z,28.40
2018-09-04T05:54:33.121Z,31.30
2018-09-04T05:57:01.757Z,25.60
2018-09-04T05:59:30.460Z,28.97
2018-09-04T06:01:59.045Z,23.13
2018-09-04T06:04:27.478Z,22.90
2018-09-04T06:06:55.865Z,24.87
2018-09-04T06:09:24.236Z,29.23
2018-09-04T06:11:52.578Z,28.03
2018-09-04T06:14:21.012Z,24.93
2018-09-04T06:16:49.605Z,28.87
2018-09-04T06:19:18.082Z,25.83
2018-09-04T06:21:46.530Z,26.30
2018-09-04T06:24:14.978Z,25.23
2018-09-04T06:26:43.416Z,22.60
2018-09-04T06:29:11.832Z,28.83
2018-09-04T06:31:40.203Z,26.80
2018-09-04T06:34:08.782Z,18.90
2018-09-04T06:36:37.371Z,29.80
2018-09-04T06:39:08.850Z,25.60
2018-09-04T06:41:37.292Z,21.00
2018-09-04T06:44:05.714Z,26.47
2018-09-04T06:46:34.169Z,28.90
2018-09-04T06:49:02.657Z,17.50
2018-09-04T06:51:31.036Z,18.00
2018-09-04T06:53:59.486Z,26.00
2018-09-04T06:56:28.847Z,26.17
2018-09-04T06:58:57.217Z,25.00
2018-09-04T07:01:25.602Z,32.57
2018-09-04T07:03:54.022Z,30.43
2018-09-04T07:06:22.436Z,22.33
2018-09-04T07:08:50.898Z,30.53
2018-09-04T07:11:19.429Z,19.83
2018-09-04T07:13:48.011Z,27.17
2018-09-04T07:16:16.584Z,20.07
2018-09-04T07:18:44.970Z,24.50
2018-09-04T07:21:13.479Z,22.10
2018-09-04T07:23:41.903Z,27.20
2018-09-04T07:26:10.405Z,21.40
2018-09-04T07:28:38.838Z,26.43
2018-09-04T07:31:07.772Z,22.83
2018-09-04T07:33:36.876Z,24.53
2018-09-04T07:36:05.619Z,24.47
2018-09-04T07:38:34.073Z,33.67
2018-09-04T07:41:02.462Z,27.57
2018-09-04T07:43:30.842Z,30.00
2018-09-04T07:45:59.255Z,17.73
2018-09-04T07:48:27.703Z,26.00
2018-09-04T07:50:56.111Z,24.30
2018-09-04T07:53:24.574Z,26.20
2018-09-04T07:55:52.942Z,23.80
2018-09-04T07:58:21.335Z,23.90
2018-09-04T08:00:49.821Z,24.73
2018-09-04T08:03:18.167Z,23.80
2018-09-04T08:05:46.778Z,17.40
2018-09-04T08:08:15.226Z,19.90
2018-09-04T08:10:43.649Z,24.70
2018-09-04T08:13:12.149Z,17.20
2018-09-04T08:15:40.578Z,28.57
2018-09-04T08:18:08.965Z,30.77
2018-09-04T08:20:40.384Z,26.60
2018-09-04T08:23:08.668Z,23.00
2018-09-04T08:25:37.191Z,23.63
2018-09-04T08:28:05.785Z,28.30
2018-09-04T08:30:34.284Z,25.53
2018-09-04T08:33:03.360Z,28.03
2018-09-04T08:35:31.773Z,34.23
2018-09-04T08:38:01.224Z,23.13
2018-09-04T08:40:31.409Z,25.43
2018-09-04T08:42:59.775Z,13.73
2018-09-04T08:45:28.631Z,30.40
2018-09-04T08:47:59.945Z,19.07
2018-09-04T08:50:29.585Z,13.87
2018-09-04T08:52:58.949Z,32.30
2018-09-04T08:55:27.584Z,36.57
2018-09-04T08:57:55.994Z,35.83
2018-09-04T09:00:24.466Z,36.73
2018-09-04T09:02:52.828Z,35.57
2018-09-04T09:05:21.220Z,35.77
2018-09-04T09:07:49.579Z,56.07
2018-09-04T09:10:18.225Z,20.40
2018-09-04T09:12:46.674Z,59.97
2018-09-04T09:15:15.185Z,45.67
2018-09-04T09:17:43.568Z,48.43
2018-09-04T09:20:11.940Z,36.37
2018-09-04T09:22:40.397Z,44.00
2018-09-04T09:25:08.849Z,44.37
2018-09-04T09:27:37.318Z,45.63
2018-09-04T09:30:05.881Z,36.67
2018-09-04T09:32:34.320Z,43.83
2018-09-04T09:35:02.737Z,41.00
2018-09-04T09:37:31.855Z,45.67
2018-09-04T09:40:00.286Z,35.00
2018-09-04T09:42:28.689Z,33.80
2018-09-04T09:44:57.168Z,35.03
2018-09-04T09:47:25.600Z,25.77
2018-09-04T09:49:54.026Z,34.03
2018-09-04T09:52:22.481Z,34.80
2018-09-04T09:54:50.900Z,36.53
2018-09-04T09:57:19.226Z,35.67
2018-09-04T09:59:47.700Z,26.07
2018-09-04T10:02:21.246Z,29.60
2018-09-04T10:04:49.663Z,32.50
2018-09-04T10:07:18.097Z,30.90
2018-09-04T10:09:46.581Z,29.40
2018-09-04T10:12:15.033Z,24.70
2018-09-04T10:14:43.473Z,36.67
2018-09-04T10:17:11.909Z,35.53
2018-09-04T10:19:40.395Z,38.00
2018-09-04T10:22:08.870Z,14.17
2018-09-04T10:24:37.285Z,24.70
2018-09-04T10:27:06.131Z,23.17
2018-09-04T10:29:34.532Z,13.07
2018-09-04T10:32:02.928Z,34.03
2018-09-04T10:34:31.303Z,32.10
2018-09-04T10:36:59.656Z,27.87
2018-09-04T10:39:33.335Z,24.20
2018-09-04T10:42:02.222Z,26.17
2018-09-04T10:44:32.517Z,19.83
2018-09-04T10:47:01.911Z,28.80
2018-09-04T10:49:30.343Z,31.90
2018-09-04T10:51:58.756Z,18.13
2018-09-04T10:54:27.198Z,23.73
2018-09-04T10:56:55.664Z,28.83
2018-09-04T10:59:24.117Z,27.47
2018-09-04T11:01:52.595Z,25.33
2018-09-04T11:04:20.975Z,29.30
2018-09-04T11:06:49.271Z,24.33
2018-09-04T11:09:17.725Z,17.17
2018-09-04T11:11:46.132Z,19.63
2018-09-04T11:14:14.553Z,16.00
2018-09-04T11:16:43.620Z,16.27
2018-09-04T11:19:12.022Z,17.93
2018-09-04T11:21:40.613Z,17.67
2018-09-04T11:24:09.000Z,21.03
2018-09-04T11:26:37.424Z,22.10
2018-09-04T11:29:07.512Z,16.73
2018-09-04T11:31:35.938Z,17.17
2018-09-04T11:34:04.280Z,16.10
2018-09-04T11:36:32.606Z,11.83
2018-09-04T11:39:00.996Z,13.73
2018-09-04T11:41:29.397Z,15.83
2018-09-04T11:43:57.789Z,15.00
2018-09-04T11:46:26.780Z,13.17
2018-09-04T11:48:55.218Z,13.80
2018-09-04T11:51:23.648Z,17.70
2018-09-04T11:53:52.066Z,18.07
2018-09-04T11:56:20.903Z,15.07
2018-09-04T11:58:49.873Z,14.93
2018-09-04T12:01:20.558Z,16.80
2018-09-04T12:03:49.120Z,14.20
2018-09-04T12:06:17.497Z,17.50
2018-09-04T12:08:46.297Z,20.10
2018-09-04T12:11:14.724Z,15.53
2018-09-04T12:13:43.328Z,17.27
2018-09-04T12:16:11.875Z,12.93
2018-09-04T12:18:40.182Z,10.33
2018-09-04T12:21:10.007Z,12.33
2018-09-04T12:23:38.460Z,14.00
2018-09-04T12:26:08.499Z,7.20
2018-09-04T12:28:37.144Z,12.17
2018-09-04T12:31:06.074Z,11.50
2018-09-04T12:33:34.450Z,12.20
2018-09-04T12:36:02.969Z,16.07
2018-09-04T12:38:32.837Z,11.30
2018-09-04T12:41:06.850Z,12.00
2018-09-04T12:43:37.737Z,9.10
2018-09-04T12:46:06.750Z,9.37
2018-09-04T12:48:35.290Z,9.03
2018-09-04T12:51:04.255Z,13.50
2018-09-04T12:53:33.585Z,11.23
2018-09-04T12:56:02.140Z,10.70
2018-09-04T12:58:30.617Z,9.53
2018-09-04T13:00:59.542Z,13.00
2018-09-04T13:03:29.045Z,10.77
2018-09-04T13:05:57.669Z,10.70
2018-09-04T13:08:28.338Z,12.43
2018-09-04T13:10:56.699Z,12.60
2018-09-04T13:13:25.166Z,13.53
2018-09-04T13:15:58.714Z,10.57
2018-09-04T13:18:27.970Z,12.90
2018-09-04T13:21:05.746Z,10.43
2018-09-04T13:23:35.416Z,10.30
2018-09-04T13:26:04.298Z,8.97
2018-09-04T13:28:33.515Z,11.43
2018-09-04T13:31:01.907Z,10.63
2018-09-04T13:33:30.306Z,12.60
2018-09-04T13:35:58.751Z,12.17
2018-09-04T13:38:27.273Z,10.60
2018-09-04T13:41:00.953Z,12.63
2018-09-04T13:43:29.350Z,13.40
2018-09-04T13:45:58.257Z,9.93
2018-09-04T13:48:29.669Z,11.30
2018-09-04T13:50:58.313Z,12.47
2018-09-04T13:53:27.292Z,10.80
2018-09-04T13:55:55.824Z,11.03
2018-09-04T13:58:24.247Z,9.07
2018-09-04T14:00:52.677Z,7.10
2018-09-04T14:03:21.014Z,6.40
2018-09-04T14:05:49.499Z,6.10
2018-09-04T14:08:18.104Z,6.70
2018-09-04T14:10:46.499Z,6.73
2018-09-04T14:13:14.898Z,6.50
2018-09-04T14:15:43.324Z,7.73
2018-09-04T14:18:12.052Z,7.07
2018-09-04T14:20:40.469Z,5.83
2018-09-04T14:23:09.213Z,8.80
2018-09-04T14:25:37.607Z,7.80
2018-09-04T14:28:06.167Z,14.00
2018-09-04T14:30:34.659Z,8.90
2018-09-04T14:33:03.011Z,8.97
2018-09-04T14:35:31.431Z,8.93
2018-09-04T14:37:59.873Z,9.07
2018-09-04T14:40:28.521Z,9.70
2018-09-04T14:42:57.048Z,11.53
2018-09-04T14:45:25.569Z,8.40
2018-09-04T14:47:53.987Z,10.80
2018-09-04T14:50:22.381Z,10.63
2018-09-04T14:52:50.828Z,11.20
2018-09-04T14:55:19.305Z,12.00
2018-09-04T14:57:47.913Z,10.77
2018-09-04T15:00:16.487Z,9.67
2018-09-04T15:02:44.857Z,10.40
2018-09-04T15:05:13.261Z,8.60
2018-09-04T15:07:41.941Z,10.00
2018-09-04T15:10:10.465Z,9.67
2018-09-04T15:12:39.049Z,9.13
2018-09-04T15:15:08.139Z,8.23
2018-09-04T15:17:36.867Z,8.57
2018-09-04T15:20:05.254Z,9.80
2018-09-04T15:22:34.060Z,9.37
2018-09-04T15:25:02.700Z,8.57
2018-09-04T15:27:31.110Z,8.53
2018-09-04T15:29:59.524Z,10.80
2018-09-04T15:32:27.925Z,9.60
2018-09-04T15:34:56.323Z,9.57
2018-09-04T15:37:24.800Z,8.20
2018-09-04T15:39:53.202Z,8.97
2018-09-04T15:42:21.634Z,8.23
2018-09-04T15:44:50.046Z,9.53
2018-09-04T15:47:18.790Z,8.40
2018-09-04T15:49:48.294Z,9.83
2018-09-04T15:52:17.481Z,9.90
2018-09-04T15:54:45.990Z,10.80
2018-09-04T15:57:15.411Z,10.10
2018-09-04T15:59:43.864Z,10.40
2018-09-04T16:02:12.217Z,10.73
2018-09-04T16:04:40.631Z,9.93
2018-09-04T16:07:09.068Z,10.13
2018-09-04T16:09:37.481Z,10.57
2018-09-04T16:12:05.876Z,11.43
2018-09-04T16:14:34.320Z,10.57
2018-09-04T16:17:02.725Z,10.17
2018-09-04T16:19:31.137Z,9.63
2018-09-04T16:21:59.725Z,10.73
2018-09-04T16:24:28.320Z,10.87
2018-09-04T16:26:56.748Z,12.83
2018-09-04T16:29:25.160Z,10.87
2018-09-04T16:31:53.610Z,11.00
2018-09-04T16:34:22.086Z,10.97
2018-09-04T16:36:50.429Z,11.00
2018-09-04T16:39:19.263Z,11.50
2018-09-04T16:41:47.721Z,15.80
2018-09-04T16:44:16.110Z,11.70
2018-09-04T16:46:44.616Z,12.03
2018-09-04T16:49:13.243Z,12.27
2018-09-04T16:51:41.705Z,12.23
2018-09-04T16:54:10.132Z,10.87
2018-09-04T16:56:38.610Z,12.93
2018-09-04T16:59:07.054Z,10.93
2018-09-04T17:01:35.500Z,11.60
2018-09-04T17:04:04.218Z,12.00
2018-09-04T17:06:32.615Z,11.50
2018-09-04T17:09:01.021Z,13.33
2018-09-04T17:11:29.401Z,16.13
2018-09-04T17:13:57.808Z,15.03
2018-09-04T17:16:26.234Z,14.90
2018-09-04T17:18:54.850Z,17.07
2018-09-04T17:21:23.299Z,18.27
2018-09-04T17:23:51.683Z,15.63
2018-09-04T17:26:20.124Z,21.73
2018-09-04T17:28:48.520Z,14.53
2018-09-04T17:31:17.067Z,17.97
2018-09-04T17:33:45.478Z,19.53
2018-09-04T17:36:13.828Z,20.73
2018-09-04T17:38:42.315Z,14.77
2018-09-04T17:41:10.676Z,17.20
2018-09-04T17:43:39.073Z,15.90
2018-09-04T17:46:07.670Z,13.00
2018-09-04T17:48:36.107Z,14.87
2018-09-04T17:51:04.707Z,13.60
2018-09-04T17:53:33.149Z,16.33
2018-09-04T17:56:01.663Z,18.37
2018-09-04T17:58:30.149Z,20.40
2018-09-04T18:00:58.631Z,18.33
2018-09-04T18:03:26.986Z,17.70
2018-09-04T18:05:55.474Z,17.87
2018-09-04T18:08:23.934Z,15.97
2018-09-04T18:10:52.446Z,13.73
2018-09-04T18:13:21.309Z,20.20
2018-09-04T18:15:49.740Z,14.27
2018-09-04T18:18:18.275Z,17.60
2018-09-04T18:20:46.782Z,17.67
2018-09-04T18:23:16.120Z,16.03
2018-09-04T18:25:44.542Z,16.63
2018-09-04T18:28:13.013Z,14.70
2018-09-04T18:30:41.424Z,17.33
2018-09-04T18:33:09.826Z,12.70
2018-09-04T18:35:38.218Z,16.43
2018-09-04T18:38:06.716Z,16.37
2018-09-04T18:40:35.111Z,18.83
2018-09-04T18:43:03.553Z,12.10
2018-09-04T18:45:42.561Z,14.80
2018-09-04T18:48:11.085Z,15.60
2018-09-04T18:50:39.549Z,18.90
2018-09-04T18:53:07.931Z,26.40
2018-09-04T18:55:36.493Z,21.23
2018-09-04T18:58:05.233Z,24.37
2018-09-04T19:00:33.662Z,27.20
2018-09-04T19:03:02.132Z,24.73
2018-09-04T19:05:30.866Z,21.17
2018-09-04T19:07:59.911Z,20.40
2018-09-04T19:10:28.658Z,23.03
2018-09-04T19:12:57.393Z,21.43
2018-09-04T19:15:26.202Z,26.47
2018-09-04T19:17:54.653Z,23.03
2018-09-04T19:20:23.503Z,20.07
2018-09-04T19:22:52.364Z,25.37
2018-09-04T19:25:20.872Z,20.03
2018-09-04T19:27:49.317Z,24.93
2018-09-04T19:30:17.752Z,26.77
2018-09-04T19:32:46.110Z,18.80
2018-09-04T19:35:14.531Z,20.47
2018-09-04T19:37:42.935Z,19.60
2018-09-04T19:40:11.695Z,19.93
2018-09-04T19:42:41.027Z,21.70
2018-09-04T19:45:09.503Z,20.00
2018-09-04T19:47:38.248Z,17.10
2018-09-04T19:50:07.927Z,22.40
2018-09-04T19:52:36.692Z,20.70
2018-09-04T19:55:05.256Z,22.60
2018-09-04T19:57:33.625Z,19.90
2018-09-04T20:00:02.033Z,27.80
2018-09-04T20:02:30.454Z,26.73
2018-09-04T20:04:58.871Z,23.77
2018-09-04T20:07:27.352Z,25.20
2018-09-04T20:09:55.953Z,24.33
2018-09-04T20:12:24.318Z,19.40
2018-09-04T20:14:53.544Z,21.53
2018-09-04T20:17:22.101Z,19.23
2018-09-04T20:19:50.496Z,24.27
2018-09-04T20:22:18.947Z,24.87
2018-09-04T20:24:47.430Z,23.10
2018-09-04T20:27:15.800Z,21.47
2018-09-04T20:29:44.248Z,32.40
2018-09-04T20:32:12.681Z,27.83
2018-09-04T20:34:41.109Z,26.80
2018-09-04T20:37:09.549Z,20.33
2018-09-04T20:39:38.133Z,27.63
2018-09-04T20:42:06.579Z,25.17
2018-09-04T20:44:35.192Z,28.37
2018-09-04T20:47:03.685Z,27.60
2018-09-04T20:49:32.167Z,25.87
2018-09-04T20:52:00.663Z,26.30
2018-09-04T20:54:29.184Z,26.70
2018-09-04T20:57:32.044Z,29.60
2018-09-04T21:00:13.420Z,25.47
2018-09-04T21:02:53.237Z,28.83
2018-09-04T21:05:33.110Z,20.20
2018-09-04T21:08:43.467Z,25.73
2018-09-04T21:11:11.856Z,24.90
2018-09-04T21:13:40.180Z,27.20
2018-09-04T21:16:08.622Z,31.53
2018-09-04T21:18:37.035Z,24.70
2018-09-04T21:21:05.700Z,26.70
2018-09-04T21:23:34.164Z,27.97
2018-09-04T21:26:02.538Z,32.40
2018-09-04T21:28:30.962Z,33.30
2018-09-04T21:30:59.385Z,25.33
2018-09-04T21:33:28.402Z,23.83
2018-09-04T21:35:56.780Z,28.77
2018-09-04T21:38:25.213Z,28.43
2018-09-04T21:40:53.619Z,28.83
2018-09-04T21:43:21.955Z,32.30
2018-09-04T21:45:50.337Z,29.47
2018-09-04T21:48:18.764Z,31.77
2018-09-04T21:50:47.162Z,24.70
2018-09-04T21:53:15.897Z,29.67
2018-09-04T21:55:44.370Z,35.67
2018-09-04T21:58:12.760Z,29.10
2018-09-04T22:00:41.846Z,29.70
2018-09-04T22:03:10.594Z,32.57
2018-09-04T22:05:40.621Z,29.63
2018-09-04T22:08:09.402Z,31.37
2018-09-04T22:10:37.972Z,28.10
2018-09-04T22:13:07.549Z,31.13
2018-09-04T22:15:35.969Z,25.17
2018-09-04T22:18:04.343Z,29.03
2018-09-04T22:20:33.188Z,34.13
2018-09-04T22:23:01.842Z,29.93
2018-09-04T22:25:30.580Z,24.87
2018-09-04T22:27:59.184Z,29.40
2018-09-04T22:30:27.708Z,34.97
2018-09-04T22:32:56.608Z,37.40
2018-09-04T22:35:25.377Z,36.20
2018-09-04T22:37:54.027Z,31.73
2018-09-04T22:40:22.608Z,36.23
2018-09-04T22:42:51.054Z,26.80
2018-09-04T22:45:19.661Z,31.60
2018-09-04T22:47:48.126Z,37.13
2018-09-04T22:50:21.700Z,34.47
2018-09-04T22:52:50.095Z,32.43
2018-09-04T22:55:19.089Z,35.77
2018-09-04T22:57:47.544Z,36.00
2018-09-04T23:00:16.795Z,26.03
2018-09-04T23:02:45.355Z,31.47
2018-09-04T23:05:14.443Z,40.30
2018-09-04T23:07:43.144Z,39.00
2018-09-04T23:10:11.616Z,34.57
2018-09-04T23:12:40.025Z,40.80
2018-09-04T23:15:08.618Z,30.40
2018-09-04T23:17:37.404Z,38.37
2018-09-04T23:20:06.217Z,37.73
2018-09-04T23:22:34.686Z,32.97
2018-09-04T23:25:03.127Z,31.63
2018-09-04T23:27:31.537Z,38.90
2018-09-04T23:30:00.000Z,45.77
2018-09-04T23:32:28.407Z,41.30
2018-09-04T23:34:56.788Z,37.80
2018-09-04T23:37:25.232Z,38.07
2018-09-04T23:39:53.613Z,25.83
2018-09-04T23:42:22.020Z,32.90
2018-09-04T23:44:50.407Z,37.10
2018-09-04T23:47:18.939Z,36.03
2018-09-04T23:49:47.411Z,36.00
2018-09-04T23:52:16.061Z,35.00
2018-09-04T23:54:44.484Z,40.43
2018-09-04T23:57:12.922Z,47.03
2018-09-04T23:59:41.403Z,42.00
